METAR Data
IDs: Format: Raw Decoded Include TAF

Data at: 1332 UTC 20 Oct 2021

KHWD 201254Z 13004KT 10SM OVC030 16/07 A3002 RMK AO2 SLP175 T01560067
No TAF found for KHWD

KRDD 201323Z 20011KT 10SM OVC015 11/09 A3002 RMK AO2 T01110089

KRDD 201136Z 2012/2112 18010G16KT 6SM -SHRA OVC015
  FM201600 20011KT 5SM BR VCSH OVC015
  FM210100 VRB04KT 6SM -RA BR OVC015


KRTS 201315Z AUTO 23012KT 10SM CLR 08/M05 A3005 RMK AO2
No TAF found for KRTS